Gillette, WY

1:24 PM MDT on October 23, 2014 (GMT -0600)
RAWS ECHETA WY US | Change Station
CLOSE
Current Station
Personal Weather Station
Location: Gillette, WY
Elevation: 4396 ft
Nearby Weather Stations

Elev 4396 ft 44.47 °N, 105.84 °W | Updated 33 minutes ago

Clear
Clear
68 °F
Feels Like 68 °F
N
5
Wind Variable Wind from SW
Gusts 14.0 mph

Today
High -- | Low -- °F
--% Chance of Precip.
Yesterday
High -- | Low -- °F
Precip. -- in
7:28 AM 6:04 PM
Waning Crescent, 0% visible
Pressure 29.89 in
Visibility 10.0 miles
Clouds Clear
Dew Point 22 °F
Humidity 17%
Rainfall 0.00 in
Snow Depth Not available.
UV 4 out of 12
Pollen 1.80 out of 12
Air Quality Not available.
Flu Activity Sporadic
METAR KGCC 231853Z AUTO 30006KT 10SM CLR 19/M04 A2995 RMK AO2 SLP121 T01941039

More Conditions Fewer Conditions

Pressure 29.89 in
Visibility 10.0 miles
Clouds Clear
Dew Point 22 °F
Humidity 17%
Rainfall 0.00 in
Snow Depth Not available.
UV 4 out of 12
Pollen 1.80 out of 12
Air Quality Not available.
Flu Activity Sporadic
METAR KGCC 231853Z AUTO 30006KT 10SM CLR 19/M04 A2995 RMK AO2 SLP121 T01941039

More Conditions Fewer Conditions

10-Day Weather Forecast

Almanac

Astronomy

Oct. 23, 2014 Rise Set
Actual Time 7:28 AM MDT 6:04 PM MDT
Civil Twilight 6:58 AM MDT 6:34 PM MDT
Nautical Twilight 6:24 AM MDT 7:08 PM MDT
Astronomical Twilight 5:50 AM MDT 7:42 PM MDT
Moon 7:09 AM MDT 6:08 PM MDT
Length of Visible Light 11h 36m
Length of Day
10h 36m
Tomorrow will be 2m 54s shorter.
Waning Crescent, 0% of the Moon is Illuminated
Today
Waning Crescent
Oct 23
New
Oct 30
First Quarter
Nov 6
Full
Nov 14
Last Quarter

Today's Extremes

State Highs State Lows

Community

WunderPhotos

Upload Photos

1,764,348 photos uploaded!

WunderBlogs® & News

By Dr. Jeff Masters
Director of Meteorology, Weather Underground
By Kari Strenfel
Meteorologist, Weather Underground
By Christopher C. Burt
Weather Historian, Weather Underground
October 23, 2014
October 23, 2014
October 23, 2014

Nearby

Snow Depth

Station Depth Elevation
Cole Canyon 0 in 5910 ft
Cloud Peak Reservoir 0 in 9860 ft
Big Goose 0 in 7990 ft
Powder River Pass 0 in 9480 ft
Bear Trap Meadow 0 in 8200 ft

Earthquake Activity

City Distance Mag. Time & Date
No recent earthquake activity has been reported nearby.
Minimum magnitude displayed is 2.5.

Coastal Water Temperatures

Place Temperature
No Stations Reporting

Nearby Weather Stations